createdAt,value
2023-05-24T00:00:32.434Z,16.2833
2023-05-24T00:01:34.126Z,14.8889
2023-05-24T00:02:35.922Z,15.3278
2023-05-24T00:03:37.833Z,14.8722
2023-05-24T00:04:39.591Z,14.3778
2023-05-24T00:05:41.260Z,14.6278
2023-05-24T00:06:42.905Z,15.7333
2023-05-24T00:07:44.608Z,15.4278
2023-05-24T00:08:46.280Z,16.3056
2023-05-24T00:09:47.962Z,15.3056
2023-05-24T00:10:49.639Z,15.6611
2023-05-24T00:11:51.322Z,15.2056
2023-05-24T00:12:53.003Z,15.6889
2023-05-24T00:13:54.693Z,14.5889
2023-05-24T00:14:56.385Z,15.4222
2023-05-24T00:15:58.065Z,14.9833
2023-05-24T00:16:59.733Z,16.0667
2023-05-24T00:18:01.568Z,15.5556
2023-05-24T00:19:03.265Z,15.5222
2023-05-24T00:20:07.290Z,16.1833
2023-05-24T00:21:05.761Z,15.7333
2023-05-24T00:22:07.467Z,15.5059
2023-05-24T00:23:09.141Z,15.2667
2023-05-24T00:24:10.846Z,14.9778
2023-05-24T00:25:12.538Z,14.7500
2023-05-24T00:26:14.202Z,15.6889
2023-05-24T00:27:15.909Z,15.1444
2023-05-24T00:28:17.569Z,14.9889
2023-05-24T00:29:19.269Z,16.3556
2023-05-24T00:30:20.975Z,16.2500
2023-05-24T00:31:22.704Z,14.9833
2023-05-24T00:32:24.369Z,14.0500
2023-05-24T00:33:26.055Z,13.9667
2023-05-24T00:34:27.732Z,14.7278
2023-05-24T00:35:29.412Z,15.0222
2023-05-24T00:36:31.176Z,14.8333
2023-05-24T00:37:32.811Z,14.4111
2023-05-24T00:38:34.482Z,14.5833
2023-05-24T00:39:36.158Z,14.8556
2023-05-24T00:40:38.879Z,15.9389
2023-05-24T00:41:40.675Z,14.3556
2023-05-24T00:42:42.588Z,14.6889
2023-05-24T00:43:44.513Z,13.8444
2023-05-24T00:44:46.185Z,14.2722
2023-05-24T00:45:47.880Z,14.5389
2023-05-24T00:46:49.526Z,13.2889
2023-05-24T00:47:51.260Z,15.0778
2023-05-24T00:48:52.915Z,15.7889
2023-05-24T00:49:54.596Z,14.1556
2023-05-24T00:50:56.261Z,15.0222
2023-05-24T00:51:57.965Z,14.8167
2023-05-24T00:52:59.659Z,16.5556
2023-05-24T00:54:02.359Z,16.4722
2023-05-24T00:55:04.053Z,15.3167
2023-05-24T00:56:05.727Z,15.3667
2023-05-24T00:57:07.389Z,16.9389
2023-05-24T00:58:09.086Z,15.4222
2023-05-24T00:59:10.763Z,16.3111
2023-05-24T01:00:12.452Z,17.5222
2023-05-24T01:01:14.147Z,17.2056
2023-05-24T01:02:15.841Z,16.6556
2023-05-24T01:03:17.661Z,16.1167
2023-05-24T01:04:19.555Z,16.8944
2023-05-24T01:05:21.477Z,17.9389
2023-05-24T01:06:24.522Z,16.8111
2023-05-24T01:07:26.410Z,17.1556
2023-05-24T01:08:28.328Z,17.7000
2023-05-24T01:09:30.242Z,17.4500
2023-05-24T01:10:32.194Z,16.9389
2023-05-24T01:11:34.087Z,17.4333
2023-05-24T01:12:36.012Z,17.1556
2023-05-24T01:13:37.931Z,16.8222
2023-05-24T01:14:39.863Z,15.8722
2023-05-24T01:15:41.811Z,15.9333
2023-05-24T01:16:43.757Z,17.5444
2023-05-24T01:17:45.709Z,17.2778
2023-05-24T01:18:47.605Z,15.8000
2023-05-24T01:19:49.637Z,15.8056
2023-05-24T01:20:51.612Z,15.6611
2023-05-24T01:21:53.516Z,16.1944
2023-05-24T01:22:55.440Z,16.1556
2023-05-24T01:23:57.138Z,15.8944
2023-05-24T01:24:58.836Z,15.6889
2023-05-24T01:26:00.740Z,15.8833
2023-05-24T01:27:02.658Z,17.0500
2023-05-24T01:28:04.558Z,16.5222
2023-05-24T01:29:06.499Z,16.4389
2023-05-24T01:30:08.209Z,15.5778
2023-05-24T01:31:09.891Z,17.0000
2023-05-24T01:32:11.586Z,16.7167
2023-05-24T01:33:13.259Z,16.6000
2023-05-24T01:34:14.949Z,15.3833
2023-05-24T01:35:16.610Z,16.4778
2023-05-24T01:36:18.290Z,16.2944
2023-05-24T01:37:20.041Z,15.8611
2023-05-24T01:38:21.711Z,16.1000
2023-05-24T01:39:23.426Z,16.1333
2023-05-24T01:40:25.125Z,15.0222
2023-05-24T01:41:26.801Z,16.2944
2023-05-24T01:42:28.718Z,16.4278
2023-05-24T01:43:30.651Z,16.6056
2023-05-24T01:44:32.563Z,16.0056
2023-05-24T01:45:34.499Z,16.6444
2023-05-24T01:46:36.441Z,17.8444
2023-05-24T01:47:38.397Z,17.2722
2023-05-24T01:48:40.288Z,16.7444
2023-05-24T01:49:42.194Z,17.2667
2023-05-24T01:50:44.271Z,16.3778
2023-05-24T01:51:46.240Z,17.8333
2023-05-24T01:52:48.173Z,19.0000
2023-05-24T01:53:50.112Z,16.7722
2023-05-24T01:54:52.021Z,17.6000
2023-05-24T01:55:53.954Z,16.3667
2023-05-24T01:56:55.836Z,17.0333
2023-05-24T01:57:57.765Z,16.7556
2023-05-24T01:58:59.676Z,17.7278
2023-05-24T02:00:01.580Z,15.2722
2023-05-24T02:01:03.555Z,16.1056
2023-05-24T02:02:05.448Z,14.9444
2023-05-24T02:03:07.676Z,15.7333
2023-05-24T02:04:09.631Z,16.5278
2023-05-24T02:05:11.544Z,16.1556
2023-05-24T02:06:13.452Z,17.4222
2023-05-24T02:07:15.364Z,18.0944
2023-05-24T02:08:17.323Z,16.8722
2023-05-24T02:09:19.202Z,16.5667
2023-05-24T02:10:21.121Z,16.5778
2023-05-24T02:11:23.047Z,16.3556
2023-05-24T02:12:25.012Z,17.6000
2023-05-24T02:13:26.960Z,17.2611
2023-05-24T02:14:28.842Z,16.8167
2023-05-24T02:15:30.766Z,15.7611
2023-05-24T02:16:32.633Z,16.8111
2023-05-24T02:17:34.601Z,17.1500
2023-05-24T02:18:36.500Z,17.3500
2023-05-24T02:19:38.417Z,16.6111
2023-05-24T02:20:40.668Z,17.1056
2023-05-24T02:21:42.698Z,17.2333
2023-05-24T02:22:44.625Z,17.2167
2023-05-24T02:23:46.523Z,18.8389
2023-05-24T02:24:48.526Z,17.4222
2023-05-24T02:25:50.472Z,17.5500
2023-05-24T02:26:52.431Z,16.8667
2023-05-24T02:27:54.323Z,18.0778
2023-05-24T02:28:56.257Z,16.7278
2023-05-24T02:29:58.148Z,19.2833
2023-05-24T02:31:00.126Z,17.8389
2023-05-24T02:32:02.054Z,15.9944
2023-05-24T02:33:04.039Z,16.7889
2023-05-24T02:34:05.917Z,17.8500
2023-05-24T02:35:07.830Z,16.7333
2023-05-24T02:36:09.726Z,17.2056
2023-05-24T02:37:11.699Z,16.9500
2023-05-24T02:38:13.627Z,16.9333
2023-05-24T02:39:15.583Z,18.7778
2023-05-24T02:40:17.500Z,17.3056
2023-05-24T02:41:19.424Z,18.6722
2023-05-24T02:42:21.355Z,16.7000
2023-05-24T02:43:23.256Z,17.1222
2023-05-24T02:44:25.155Z,17.1778
2023-05-24T02:45:27.096Z,16.7222
2023-05-24T02:46:29.037Z,16.5944
2023-05-24T02:47:30.929Z,16.4833
2023-05-24T02:48:32.808Z,16.1611
2023-05-24T02:49:34.714Z,17.4167
2023-05-24T02:50:36.644Z,18.5611
2023-05-24T02:51:38.540Z,17.3000
2023-05-24T02:52:40.474Z,17.4333
2023-05-24T02:53:42.388Z,19.3556
2023-05-24T02:54:44.299Z,17.4611
2023-05-24T02:55:46.213Z,18.9222
2023-05-24T02:56:48.124Z,18.1556
2023-05-24T02:57:50.067Z,17.6889
2023-05-24T02:58:51.958Z,18.9333
2023-05-24T02:59:53.862Z,17.7722
2023-05-24T03:00:55.773Z,17.7278
2023-05-24T03:01:57.924Z,17.8556
2023-05-24T03:02:59.950Z,20.6833
2023-05-24T03:04:02.043Z,18.5722
2023-05-24T03:05:03.970Z,19.8611
2023-05-24T03:06:05.901Z,19.6444
2023-05-24T03:07:07.834Z,19.3889
2023-05-24T03:08:09.722Z,18.1611
2023-05-24T03:09:11.656Z,17.6500
2023-05-24T03:10:15.834Z,19.2889
2023-05-24T03:11:14.613Z,18.7167
2023-05-24T03:12:16.529Z,17.9824
2023-05-24T03:13:18.420Z,18.1556
2023-05-24T03:14:20.348Z,18.6889
2023-05-24T03:15:22.263Z,18.5944
2023-05-24T03:16:24.226Z,18.8944
2023-05-24T03:17:26.146Z,16.9778
2023-05-24T03:18:28.034Z,17.3556
2023-05-24T03:19:29.949Z,16.6278
2023-05-24T03:20:31.930Z,16.9000
2023-05-24T03:21:33.819Z,18.4500
2023-05-24T03:22:35.774Z,17.8111
2023-05-24T03:23:37.684Z,17.0833
2023-05-24T03:24:39.586Z,18.2722
2023-05-24T03:25:41.497Z,17.3944
2023-05-24T03:26:43.412Z,16.8000
2023-05-24T03:27:45.343Z,17.0611
2023-05-24T03:28:47.271Z,16.0778
2023-05-24T03:29:49.178Z,17.2111
2023-05-24T03:30:51.087Z,16.2167
2023-05-24T03:31:53.087Z,16.0333
2023-05-24T03:32:55.000Z,16.3278
2023-05-24T03:33:56.870Z,16.9611
2023-05-24T03:34:58.786Z,16.8889
2023-05-24T03:36:00.696Z,17.0722
2023-05-24T03:37:02.605Z,16.3667
2023-05-24T03:38:04.527Z,16.6222
2023-05-24T03:39:06.435Z,17.0278
2023-05-24T03:40:08.346Z,17.2944
2023-05-24T03:41:10.266Z,17.1333
2023-05-24T03:42:12.187Z,17.7000
2023-05-24T03:43:14.105Z,17.1944
2023-05-24T03:44:16.026Z,17.4722
2023-05-24T03:45:26.981Z,17.8611
2023-05-24T03:46:19.198Z,19.2889
2023-05-24T03:47:21.186Z,19.3188
2023-05-24T03:48:24.081Z,18.1222
2023-05-24T03:49:26.015Z,19.5556
2023-05-24T03:50:27.918Z,18.6056
2023-05-24T03:51:29.916Z,17.9167
2023-05-24T03:52:31.759Z,18.1611
2023-05-24T03:53:33.671Z,17.1778
2023-05-24T03:54:35.595Z,17.5556
2023-05-24T03:55:37.514Z,16.4333
2023-05-24T03:56:39.437Z,17.1167
2023-05-24T03:57:41.361Z,18.3222
2023-05-24T03:58:43.332Z,16.9500
2023-05-24T03:59:45.245Z,16.9556
2023-05-24T04:00:47.206Z,18.3167
2023-05-24T04:01:49.227Z,17.8000
2023-05-24T04:02:51.335Z,16.9500
2023-05-24T04:03:53.352Z,17.4056
2023-05-24T04:04:55.312Z,17.0111
2023-05-24T04:05:57.271Z,17.5167
2023-05-24T04:06:59.256Z,17.6000
2023-05-24T04:08:01.268Z,18.1389
2023-05-24T04:09:03.299Z,17.9389
2023-05-24T04:10:05.288Z,18.7222
2023-05-24T04:11:07.221Z,18.8389
2023-05-24T04:12:09.214Z,17.0556
2023-05-24T04:13:11.155Z,17.5111
2023-05-24T04:14:13.133Z,17.1278
2023-05-24T04:15:15.102Z,18.2056
2023-05-24T04:16:17.123Z,17.9111
2023-05-24T04:17:19.176Z,17.9167
2023-05-24T04:18:21.204Z,18.2111
2023-05-24T04:19:23.158Z,18.1056
2023-05-24T04:20:25.187Z,17.9111
2023-05-24T04:21:27.157Z,16.5222
2023-05-24T04:22:29.161Z,17.1389
2023-05-24T04:23:31.164Z,17.2444
2023-05-24T04:24:33.157Z,16.9278
2023-05-24T04:25:35.137Z,18.1556
2023-05-24T04:26:37.105Z,17.0111
2023-05-24T04:27:39.123Z,19.2611
2023-05-24T04:28:41.163Z,17.7222
2023-05-24T04:29:43.110Z,17.2056
2023-05-24T04:30:45.048Z,17.3556
2023-05-24T04:31:47.198Z,17.5167
2023-05-24T04:32:49.286Z,17.2167
2023-05-24T04:33:51.263Z,19.2389
2023-05-24T04:34:53.232Z,18.6667
2023-05-24T04:35:55.296Z,18.6056
2023-05-24T04:36:57.241Z,19.2722
2023-05-24T04:37:59.228Z,17.5222
2023-05-24T04:39:01.207Z,17.0944
2023-05-24T04:40:03.238Z,18.0667
2023-05-24T04:41:05.184Z,17.5222
2023-05-24T04:42:07.150Z,17.8389
2023-05-24T04:43:09.152Z,17.9167
2023-05-24T04:44:11.193Z,17.4778
2023-05-24T04:45:13.282Z,16.9111
2023-05-24T04:46:16.220Z,19.2389
2023-05-24T04:47:18.243Z,17.2529
2023-05-24T04:48:20.210Z,16.6556
2023-05-24T04:49:22.119Z,16.1611
2023-05-24T04:50:23.890Z,15.9778
2023-05-24T04:51:25.654Z,16.2611
2023-05-24T04:52:27.431Z,17.0000
2023-05-24T04:53:29.230Z,16.0167
2023-05-24T04:54:31.279Z,17.2889
2023-05-24T04:55:33.346Z,17.5167
2023-05-24T04:56:35.338Z,16.4444
2023-05-24T04:57:37.311Z,17.3111
2023-05-24T04:58:39.500Z,17.6500
2023-05-24T04:59:41.392Z,16.2889
2023-05-24T05:00:43.560Z,16.3222
2023-05-24T05:01:45.601Z,15.4222
2023-05-24T05:02:47.609Z,16.3889
2023-05-24T05:03:49.573Z,15.8611
2023-05-24T05:04:51.343Z,15.3611
2023-05-24T05:05:53.169Z,15.8111
2023-05-24T05:06:54.906Z,16.1278
2023-05-24T05:07:56.715Z,15.7500
2023-05-24T05:08:58.534Z,16.2389
2023-05-24T05:10:00.638Z,17.0000
2023-05-24T05:11:02.618Z,16.1111
2023-05-24T05:12:04.576Z,16.3278
2023-05-24T05:13:06.524Z,16.1500
2023-05-24T05:14:08.459Z,17.3111
2023-05-24T05:15:10.491Z,16.1722
2023-05-24T05:16:12.500Z,15.2778
2023-05-24T05:17:14.461Z,14.6833
2023-05-24T05:18:16.546Z,14.9000
2023-05-24T05:19:18.517Z,16.4444
2023-05-24T05:20:20.527Z,14.6722
2023-05-24T05:21:22.455Z,14.9667
2023-05-24T05:23:25.823Z,15.1278
2023-05-24T05:24:27.808Z,15.9857
2023-05-24T05:25:29.856Z,15.2889
2023-05-24T05:26:31.857Z,14.2333
2023-05-24T05:27:33.869Z,14.9833
2023-05-24T05:28:35.678Z,15.1500
2023-05-24T05:29:37.408Z,16.6667
2023-05-24T05:30:39.155Z,15.8611
2023-05-24T05:31:41.140Z,16.0278
2023-05-24T05:32:43.321Z,15.3389
2023-05-24T05:33:46.313Z,14.8389
2023-05-24T05:34:48.336Z,14.9278
2023-05-24T05:35:51.753Z,16.0000
2023-05-24T05:36:51.474Z,15.6944
2023-05-24T05:37:53.428Z,15.5647
2023-05-24T05:38:55.453Z,14.5500
2023-05-24T05:39:57.443Z,14.6778
2023-05-24T05:40:59.506Z,15.9889
2023-05-24T05:42:01.474Z,16.9389
2023-05-24T05:43:03.415Z,15.6167
2023-05-24T05:44:05.451Z,15.5889
2023-05-24T05:45:07.469Z,16.5833
2023-05-24T05:46:09.493Z,16.3944
2023-05-24T05:47:11.481Z,16.8889
2023-05-24T05:48:13.396Z,15.2444
2023-05-24T05:49:15.404Z,15.1222
2023-05-24T05:50:17.594Z,15.3500
2023-05-24T05:51:19.647Z,15.7500
2023-05-24T05:52:21.571Z,15.4944
2023-05-24T05:53:23.553Z,15.1000
2023-05-24T05:54:25.513Z,15.8167
2023-05-24T05:55:27.380Z,14.8889
2023-05-24T05:56:29.315Z,14.3056
2023-05-24T05:57:31.269Z,15.5889
2023-05-24T05:58:33.342Z,15.9889
2023-05-24T05:59:35.327Z,16.1722
2023-05-24T06:00:38.116Z,16.3444
2023-05-24T06:01:40.191Z,15.4556
2023-05-24T06:02:42.149Z,15.6222
2023-05-24T06:03:45.458Z,15.6167
2023-05-24T06:04:47.656Z,16.2444
2023-05-24T06:05:49.645Z,15.4111
2023-05-24T06:06:51.687Z,14.6444
2023-05-24T06:07:53.427Z,14.5389
2023-05-24T06:08:55.211Z,14.7333
2023-05-24T06:09:57.003Z,14.8000
2023-05-24T06:10:58.743Z,13.6444
2023-05-24T06:12:00.469Z,14.4444
2023-05-24T06:13:02.288Z,14.5389
2023-05-24T06:14:04.077Z,13.8222
2023-05-24T06:15:05.827Z,14.2611
2023-05-24T06:16:07.668Z,13.3222
2023-05-24T06:17:09.351Z,14.4333
2023-05-24T06:18:11.058Z,13.4833
2023-05-24T06:19:12.843Z,13.0167
2023-05-24T06:20:14.641Z,13.6389
2023-05-24T06:21:16.383Z,13.6222
2023-05-24T06:22:18.167Z,13.1222
2023-05-24T06:23:19.903Z,13.4222
2023-05-24T06:24:21.710Z,13.3833
2023-05-24T06:25:23.509Z,13.3444
2023-05-24T06:26:25.313Z,13.3056
2023-05-24T06:27:27.044Z,13.3333
2023-05-24T06:28:28.778Z,12.3778
2023-05-24T06:29:30.830Z,13.8222
2023-05-24T06:30:32.626Z,12.7500
2023-05-24T06:31:34.392Z,13.4278
2023-05-24T06:32:36.460Z,12.9333
2023-05-24T06:33:38.383Z,13.0722
2023-05-24T06:34:40.690Z,12.9889
2023-05-24T06:35:42.461Z,12.5833
2023-05-24T06:36:44.255Z,13.7944
2023-05-24T06:37:46.065Z,11.8778
2023-05-24T06:38:47.801Z,12.1889
2023-05-24T06:39:49.595Z,12.5389
2023-05-24T06:40:51.328Z,12.3778
2023-05-24T06:41:53.047Z,11.8611
2023-05-24T06:42:54.760Z,13.1444
2023-05-24T06:43:56.661Z,13.7667
2023-05-24T06:44:58.440Z,13.4167
2023-05-24T06:46:00.165Z,13.9111
2023-05-24T06:47:01.956Z,13.7500
2023-05-24T06:48:03.812Z,13.8111
2023-05-24T06:49:05.619Z,14.4611
2023-05-24T06:50:07.388Z,13.5778
2023-05-24T06:51:09.119Z,14.2556
2023-05-24T06:52:10.907Z,14.9389
2023-05-24T06:53:13.058Z,14.7778
2023-05-24T06:54:15.061Z,13.6000
2023-05-24T06:55:17.015Z,14.8000
2023-05-24T06:56:19.111Z,15.7167
2023-05-24T06:57:21.046Z,13.3278
2023-05-24T06:58:22.776Z,12.5444
2023-05-24T06:59:24.605Z,14.0056
2023-05-24T07:00:26.363Z,14.1000
2023-05-24T07:01:28.083Z,12.7556
2023-05-24T07:02:29.869Z,13.1611
2023-05-24T07:03:31.628Z,12.4444
2023-05-24T07:04:33.427Z,12.4333
2023-05-24T07:05:35.153Z,11.9111
2023-05-24T07:06:36.863Z,12.8222
2023-05-24T07:07:38.643Z,12.6722
2023-05-24T07:08:40.438Z,12.5056
2023-05-24T07:09:42.224Z,11.7889
2023-05-24T07:10:44.179Z,11.3444
2023-05-24T07:11:46.570Z,12.2111
2023-05-24T07:12:48.368Z,11.1833
2023-05-24T07:13:50.101Z,12.0333
2023-05-24T07:14:51.858Z,11.2444
2023-05-24T07:15:53.602Z,11.0222
2023-05-24T07:16:55.539Z,10.8500
2023-05-24T07:17:58.512Z,10.6056
2023-05-24T07:19:01.889Z,10.6333
2023-05-24T07:20:02.726Z,10.5167
2023-05-24T07:21:04.680Z,10.1059
2023-05-24T07:22:06.704Z,9.7167
2023-05-24T07:23:08.638Z,10.4722
2023-05-24T07:24:10.665Z,9.8667
2023-05-24T07:25:12.623Z,10.3389
2023-05-24T07:26:14.660Z,10.1556
2023-05-24T07:27:16.612Z,10.1222
2023-05-24T07:28:18.659Z,10.5833
2023-05-24T07:29:20.428Z,10.8667
2023-05-24T07:30:31.784Z,10.7389
2023-05-24T07:31:23.249Z,10.6056
2023-05-24T07:32:24.996Z,10.8938
2023-05-24T07:33:27.686Z,10.4556
2023-05-24T07:34:29.610Z,10.4556
2023-05-24T07:35:31.344Z,10.6611
2023-05-24T07:36:34.832Z,10.2111
2023-05-24T07:37:33.479Z,10.4000
2023-05-24T07:38:35.260Z,10.0235
2023-05-24T07:39:37.017Z,9.8222
2023-05-24T07:40:39.005Z,10.4056
2023-05-24T07:41:41.012Z,10.2167
2023-05-24T07:42:43.117Z,10.9111
2023-05-24T07:43:45.094Z,10.9444
2023-05-24T07:44:46.818Z,10.4389
2023-05-24T07:45:48.556Z,10.3833
2023-05-24T07:46:50.435Z,10.3889
2023-05-24T07:47:53.308Z,9.9778
2023-05-24T07:48:53.617Z,9.9389
2023-05-24T07:49:55.389Z,10.1941
2023-05-24T07:50:57.149Z,10.3111
2023-05-24T07:51:58.864Z,9.8778
2023-05-24T07:53:00.596Z,9.8833
2023-05-24T07:54:02.374Z,9.7167
2023-05-24T07:55:04.145Z,10.6333
2023-05-24T07:56:05.882Z,10.2333
2023-05-24T07:57:09.453Z,10.8500
2023-05-24T07:58:07.988Z,10.7333
2023-05-24T07:59:09.766Z,10.2294
2023-05-24T08:00:11.506Z,10.5833
2023-05-24T08:01:13.218Z,9.6833
2023-05-24T08:02:15.019Z,9.9500
2023-05-24T08:03:16.817Z,10.2556
2023-05-24T08:04:18.553Z,10.1000
2023-05-24T08:05:20.283Z,9.8167
2023-05-24T08:06:22.238Z,9.8556
2023-05-24T08:07:24.034Z,10.2333
2023-05-24T08:08:25.740Z,10.1833
2023-05-24T08:09:27.450Z,10.3222
2023-05-24T08:10:29.188Z,9.9944
2023-05-24T08:11:30.992Z,9.4944
2023-05-24T08:12:32.731Z,9.7167
2023-05-24T08:13:34.459Z,10.0556
2023-05-24T08:14:36.190Z,10.1333
2023-05-24T08:15:37.948Z,9.9056
2023-05-24T08:16:39.849Z,10.2556
2023-05-24T08:17:41.638Z,10.9056
2023-05-24T08:18:43.419Z,10.2167
2023-05-24T08:19:45.224Z,10.4667
2023-05-24T08:20:47.194Z,9.9611
2023-05-24T08:21:48.892Z,9.9667
2023-05-24T08:22:50.763Z,9.4722
2023-05-24T08:23:52.629Z,10.0389
2023-05-24T08:24:54.365Z,10.2056
2023-05-24T08:25:56.062Z,10.1722
2023-05-24T08:26:57.805Z,9.8056
2023-05-24T08:27:59.561Z,9.5500
2023-05-24T08:29:01.348Z,9.5222
2023-05-24T08:30:03.091Z,9.5111
2023-05-24T08:31:05.134Z,10.2389
2023-05-24T08:32:07.504Z,9.3944
2023-05-24T08:33:09.365Z,10.1556
2023-05-24T08:34:11.119Z,9.8222
2023-05-24T08:35:21.102Z,9.8278
2023-05-24T08:36:14.124Z,9.7667
2023-05-24T08:37:16.400Z,10.0562
2023-05-24T08:38:18.093Z,9.9722
2023-05-24T08:39:19.868Z,9.7667
2023-05-24T08:40:21.597Z,10.1000
2023-05-24T08:41:23.291Z,10.3500
2023-05-24T08:42:25.074Z,10.1333
2023-05-24T08:43:26.826Z,10.2556
2023-05-24T08:44:28.535Z,9.8167
2023-05-24T08:45:30.314Z,9.8333
2023-05-24T08:46:32.105Z,9.9944
2023-05-24T08:47:33.977Z,9.7056
2023-05-24T08:48:35.983Z,10.1278
2023-05-24T08:49:37.823Z,10.2167
2023-05-24T08:50:39.627Z,10.0333
2023-05-24T08:51:41.408Z,9.6222
2023-05-24T08:52:43.139Z,9.8500
2023-05-24T08:53:44.874Z,9.4833
2023-05-24T08:54:46.604Z,9.9222
2023-05-24T08:55:48.479Z,9.7889
2023-05-24T08:56:50.245Z,9.7222
2023-05-24T08:57:51.962Z,10.1167
2023-05-24T08:59:00.432Z,9.5278
2023-05-24T08:59:55.637Z,9.4944
2023-05-24T09:00:57.472Z,10.1187
2023-05-24T09:01:59.175Z,9.6889
2023-05-24T09:03:01.035Z,10.1667
2023-05-24T09:04:03.864Z,9.7222
2023-05-24T09:05:05.628Z,9.4111
2023-05-24T09:06:07.359Z,10.0556
2023-05-24T09:07:09.192Z,9.9056
2023-05-24T09:08:11.261Z,9.5778
2023-05-24T09:09:13.153Z,9.7333
2023-05-24T09:10:15.081Z,10.2111
2023-05-24T09:11:17.035Z,9.6944
2023-05-24T09:12:32.482Z,9.6278
2023-05-24T09:13:20.862Z,9.8500
2023-05-24T09:14:22.814Z,9.7500
2023-05-24T09:15:24.823Z,9.9944
2023-05-24T09:16:26.910Z,9.7111
2023-05-24T09:17:29.705Z,9.9222
2023-05-24T09:18:30.914Z,9.7889
2023-05-24T09:19:32.920Z,9.6706
2023-05-24T09:20:34.927Z,9.3833
2023-05-24T09:21:36.764Z,8.7222
2023-05-24T09:22:40.766Z,9.1500
2023-05-24T09:23:40.042Z,9.8611
2023-05-24T09:24:41.823Z,9.4882
2023-05-24T09:25:43.614Z,9.1667
2023-05-24T09:26:45.666Z,9.6778
2023-05-24T09:27:49.008Z,9.5667
2023-05-24T09:28:47.693Z,9.2389
2023-05-24T09:29:49.633Z,9.0882
2023-05-24T09:30:51.541Z,8.7667
2023-05-24T09:31:53.608Z,8.7000
2023-05-24T09:32:55.589Z,8.8222
2023-05-24T09:33:57.411Z,8.6056
2023-05-24T09:34:59.146Z,8.2500
2023-05-24T09:36:00.851Z,8.2722
2023-05-24T09:37:02.669Z,8.5000
2023-05-24T09:38:04.563Z,7.9944
2023-05-24T09:39:06.312Z,9.0167
2023-05-24T09:40:08.051Z,7.8889
2023-05-24T09:41:09.749Z,8.1167
2023-05-24T09:42:11.604Z,8.2444
2023-05-24T09:43:13.304Z,8.5722
2023-05-24T09:44:15.028Z,8.5778
2023-05-24T09:45:16.778Z,8.1500
2023-05-24T09:46:18.611Z,7.9056
2023-05-24T09:47:21.390Z,8.0556
2023-05-24T09:48:23.234Z,8.6111
2023-05-24T09:49:24.950Z,8.9556
2023-05-24T09:50:26.706Z,8.5500
2023-05-24T09:51:28.499Z,8.5889
2023-05-24T09:52:30.215Z,8.8000
2023-05-24T09:53:31.949Z,8.6444
2023-05-24T09:54:33.839Z,8.8167
2023-05-24T09:55:35.721Z,8.9278
2023-05-24T09:56:37.445Z,8.9000
2023-05-24T09:57:39.139Z,8.8389
2023-05-24T09:58:40.867Z,9.0333
2023-05-24T09:59:42.623Z,9.1944
2023-05-24T10:00:44.605Z,9.3444
2023-05-24T10:01:46.720Z,8.5556
2023-05-24T10:03:49.789Z,8.9556
2023-05-24T10:04:51.614Z,8.4529
2023-05-24T10:05:53.258Z,8.6278
2023-05-24T10:06:55.030Z,8.5444
2023-05-24T10:07:56.804Z,8.2056
2023-05-24T10:08:58.577Z,8.2833
2023-05-24T10:10:00.291Z,8.5833
2023-05-24T10:11:02.014Z,8.2944
2023-05-24T10:12:03.787Z,8.2222
2023-05-24T10:13:05.534Z,8.5333
2023-05-24T10:14:07.285Z,8.7556
2023-05-24T10:15:09.030Z,7.9667
2023-05-24T10:16:10.809Z,8.3833
2023-05-24T10:17:12.750Z,8.2833
2023-05-24T10:18:14.707Z,8.2944
2023-05-24T10:19:17.474Z,8.1833
2023-05-24T10:20:19.278Z,7.9833
2023-05-24T10:21:21.037Z,8.0389
2023-05-24T10:22:22.762Z,8.2278
2023-05-24T10:23:24.573Z,8.3222
2023-05-24T10:24:26.375Z,8.1611
2023-05-24T10:25:28.091Z,8.5556
2023-05-24T10:26:29.825Z,8.4611
2023-05-24T10:27:31.557Z,8.2222
2023-05-24T10:28:33.322Z,8.4778
2023-05-24T10:29:35.080Z,8.4389
2023-05-24T10:30:36.846Z,8.4667
2023-05-24T10:31:38.654Z,8.2000
2023-05-24T10:32:40.488Z,7.9889
2023-05-24T10:33:42.207Z,8.2667
2023-05-24T10:34:43.925Z,8.1278
2023-05-24T10:35:46.689Z,7.7333
2023-05-24T10:36:48.477Z,7.8833
2023-05-24T10:37:50.297Z,7.3500
2023-05-24T10:38:51.996Z,7.1000
2023-05-24T10:39:53.758Z,7.5222
2023-05-24T10:40:55.510Z,7.2833
2023-05-24T10:41:57.232Z,7.7056
2023-05-24T10:42:58.960Z,7.4556
2023-05-24T10:44:09.870Z,7.4056
2023-05-24T10:45:01.715Z,7.3444
2023-05-24T10:46:03.460Z,7.2500
2023-05-24T10:47:05.213Z,8.0111
2023-05-24T10:48:06.987Z,7.3167
2023-05-24T10:50:09.820Z,7.8389
2023-05-24T10:51:11.661Z,7.6308
2023-05-24T10:52:13.474Z,7.1389
2023-05-24T10:53:15.209Z,7.1111
2023-05-24T10:54:16.949Z,7.3722
2023-05-24T10:55:18.631Z,7.0556
2023-05-24T10:56:20.447Z,7.4167
2023-05-24T10:57:22.190Z,7.1444
2023-05-24T10:58:23.886Z,7.2722
2023-05-24T10:59:25.854Z,7.2167
2023-05-24T11:01:28.623Z,7.6611
2023-05-24T11:02:30.362Z,7.9813
2023-05-24T11:03:32.132Z,7.9389
2023-05-24T11:04:33.872Z,7.7056
2023-05-24T11:05:35.630Z,8.2111
2023-05-24T11:07:38.640Z,7.8833
2023-05-24T11:08:40.381Z,8.0429
2023-05-24T11:09:42.104Z,8.3500
2023-05-24T11:10:44.153Z,7.8889
2023-05-24T11:11:46.148Z,8.0556
2023-05-24T11:12:47.870Z,7.9500
2023-05-24T11:13:49.608Z,8.0722
2023-05-24T11:14:51.436Z,7.9500
2023-05-24T11:15:53.169Z,8.1778
2023-05-24T11:16:55.018Z,8.2722
2023-05-24T11:17:56.763Z,8.2889
2023-05-24T11:18:58.462Z,7.8889
2023-05-24T11:20:00.255Z,7.8389
2023-05-24T11:21:02.009Z,7.7056
2023-05-24T11:22:03.764Z,8.3278
2023-05-24T11:23:05.499Z,8.1222
2023-05-24T11:24:07.317Z,8.1111
2023-05-24T11:25:09.104Z,8.6444
2023-05-24T11:26:10.823Z,8.3611
2023-05-24T11:27:12.611Z,8.5111
2023-05-24T11:28:14.407Z,8.5111
2023-05-24T11:29:16.237Z,8.9778
2023-05-24T11:30:17.938Z,8.5000
2023-05-24T11:31:19.749Z,8.3444
2023-05-24T11:32:21.681Z,7.8722
2023-05-24T11:33:23.397Z,8.4444
2023-05-24T11:34:25.143Z,8.2389
2023-05-24T11:35:26.892Z,8.5278
2023-05-24T11:36:28.801Z,8.6000
2023-05-24T11:37:45.592Z,8.7389
2023-05-24T11:38:33.058Z,8.6722
2023-05-24T11:39:36.052Z,9.0063
2023-05-24T11:40:37.979Z,8.8556
2023-05-24T11:41:41.822Z,8.8500
2023-05-24T11:42:40.445Z,8.7778
2023-05-24T11:43:42.388Z,8.7824
2023-05-24T11:44:52.275Z,8.7222
2023-05-24T11:45:47.471Z,8.7500
2023-05-24T11:46:49.196Z,8.7875
2023-05-24T11:47:51.011Z,8.7333
2023-05-24T11:48:52.732Z,8.8444
2023-05-24T11:49:54.453Z,8.4944
2023-05-24T11:50:56.435Z,8.8167
2023-05-24T11:51:58.288Z,8.7556
2023-05-24T11:53:00.052Z,9.0389
2023-05-24T11:54:01.785Z,8.4056
2023-05-24T11:55:03.502Z,8.6000
2023-05-24T11:56:05.339Z,9.6389
2023-05-24T11:57:07.013Z,8.7611
2023-05-24T11:58:08.777Z,8.7444
2023-05-24T11:59:10.466Z,8.9500
2023-05-24T12:00:12.222Z,8.8111
2023-05-24T12:01:13.989Z,9.2833
2023-05-24T12:02:15.953Z,9.3889
2023-05-24T12:03:17.844Z,10.0278
2023-05-24T12:04:19.802Z,9.6222
2023-05-24T12:05:21.541Z,9.7111
2023-05-24T12:06:23.264Z,9.3556
2023-05-24T12:07:24.961Z,9.2889
2023-05-24T12:08:26.712Z,9.1111
2023-05-24T12:09:28.478Z,9.4778
2023-05-24T12:10:30.197Z,9.0278
2023-05-24T12:11:31.957Z,8.7111
2023-05-24T12:12:42.293Z,9.1778
2023-05-24T12:13:34.869Z,9.3611
2023-05-24T12:14:36.625Z,8.8750
2023-05-24T12:15:38.426Z,8.5444
2023-05-24T12:16:40.190Z,9.0389
2023-05-24T12:17:41.980Z,9.9111
2023-05-24T12:18:55.069Z,8.9944
2023-05-24T12:19:44.848Z,9.1000
2023-05-24T12:20:46.865Z,8.6250
2023-05-24T12:21:48.735Z,8.7889
2023-05-24T12:22:50.667Z,8.9167
2023-05-24T12:23:52.657Z,8.5111
2023-05-24T12:24:54.511Z,8.9000
2023-05-24T12:25:56.232Z,9.0500
2023-05-24T12:26:58.170Z,9.0667
2023-05-24T12:27:59.981Z,9.1444
2023-05-24T12:29:01.724Z,8.6000
2023-05-24T12:30:03.428Z,8.6611
2023-05-24T12:31:07.970Z,8.9278
2023-05-24T12:32:06.430Z,9.0944
2023-05-24T12:33:08.205Z,9.0059
2023-05-24T12:34:09.879Z,9.5333
2023-05-24T12:35:11.638Z,9.0611
2023-05-24T12:36:13.367Z,9.0611
2023-05-24T12:37:15.157Z,8.8722
2023-05-24T12:38:16.910Z,9.3667
2023-05-24T12:39:18.657Z,9.4556
2023-05-24T12:40:20.348Z,9.2278
2023-05-24T12:41:22.081Z,9.5611